createdAt,value
2022-08-03T00:02:56.098Z,11.50
2022-08-03T00:12:59.780Z,11.30
2022-08-03T00:23:03.821Z,10.30
2022-08-03T00:33:07.073Z,11.00
2022-08-03T00:43:11.743Z,12.80
2022-08-03T00:53:15.407Z,10.40
2022-08-03T01:03:22.247Z,11.70
2022-08-03T01:14:03.507Z,11.40
2022-08-03T01:24:54.422Z,12.40
2022-08-03T01:35:12.961Z,13.30
2022-08-03T01:45:19.831Z,14.30
2022-08-03T01:55:32.233Z,13.90
2022-08-03T02:05:43.617Z,12.00
2022-08-03T02:15:48.582Z,12.90
2022-08-03T02:25:57.915Z,12.50
2022-08-03T02:36:06.494Z,11.50
2022-08-03T02:46:15.164Z,11.00
2022-08-03T02:56:24.347Z,11.20
2022-08-03T03:06:33.639Z,11.50
2022-08-03T03:16:37.228Z,11.20
2022-08-03T03:27:58.572Z,11.20
2022-08-03T03:38:16.916Z,11.50
2022-08-03T03:48:20.788Z,11.60
2022-08-03T03:58:24.858Z,11.20
2022-08-03T04:19:12.382Z,11.90
2022-08-03T04:29:16.244Z,12.80
2022-08-03T04:39:26.810Z,13.60
2022-08-03T04:49:33.517Z,13.00
2022-08-03T04:59:39.125Z,12.60
2022-08-03T05:09:50.620Z,13.70
2022-08-03T05:20:07.185Z,13.50
2022-08-03T05:30:27.307Z,14.90
2022-08-03T05:40:37.835Z,14.00
2022-08-03T05:50:50.038Z,13.80
2022-08-03T06:01:18.005Z,13.20
2022-08-03T06:11:21.441Z,13.90
2022-08-03T06:21:24.714Z,15.30
2022-08-03T06:31:36.698Z,16.90
2022-08-03T06:41:44.826Z,17.30
2022-08-03T06:52:06.018Z,17.20
2022-08-03T07:02:10.614Z,16.40
2022-08-03T07:22:18.990Z,14.70
2022-08-03T07:32:22.475Z,14.00
2022-08-03T07:42:27.142Z,12.20
2022-08-03T07:52:48.475Z,10.30
2022-08-03T08:02:51.646Z,8.50
2022-08-03T08:12:55.803Z,6.50
2022-08-03T08:23:08.874Z,4.50
2022-08-03T08:33:37.381Z,4.20
2022-08-03T08:43:45.673Z,5.20
2022-08-03T08:53:53.917Z,5.50
2022-08-03T09:03:57.214Z,6.90
2022-08-03T09:14:00.650Z,5.40
2022-08-03T09:24:10.292Z,4.40
2022-08-03T09:34:26.003Z,4.70
2022-08-03T09:44:43.830Z,4.50
2022-08-03T09:54:52.426Z,4.30
2022-08-03T10:04:55.634Z,4.10
2022-08-03T10:14:58.867Z,4.30
2022-08-03T10:25:13.669Z,4.10
2022-08-03T10:35:24.084Z,3.90
2022-08-03T10:45:28.224Z,3.80
2022-08-03T10:55:58.766Z,3.80
2022-08-03T11:18:11.821Z,4.10
2022-08-03T11:28:42.649Z,4.30
2022-08-03T11:39:18.270Z,4.30
2022-08-03T11:49:24.267Z,4.30
2022-08-03T11:59:35.373Z,4.20
2022-08-03T12:09:42.047Z,3.90
2022-08-03T12:19:45.581Z,4.50
2022-08-03T12:29:57.267Z,4.30
2022-08-03T12:40:15.154Z,4.20
2022-08-03T12:50:36.810Z,4.50
2022-08-03T13:00:40.531Z,4.30
2022-08-03T13:10:46.154Z,4.30
2022-08-03T13:20:49.633Z,4.40
2022-08-03T13:30:54.997Z,4.80
2022-08-03T13:40:59.133Z,4.50
2022-08-03T13:51:05.601Z,4.40
2022-08-03T14:01:54.291Z,4.60
2022-08-03T14:12:07.959Z,4.80
2022-08-03T14:22:17.127Z,4.30
2022-08-03T14:32:20.444Z,4.50
2022-08-03T14:42:24.001Z,4.60
2022-08-03T14:52:27.319Z,4.70
2022-08-03T15:02:30.573Z,4.60
2022-08-03T15:12:33.733Z,4.50
2022-08-03T15:22:40.280Z,5.00
2022-08-03T15:32:43.446Z,5.20
2022-08-03T15:42:47.896Z,4.70
2022-08-03T15:52:51.226Z,4.90
2022-08-03T16:02:55.730Z,4.80
2022-08-03T16:13:01.199Z,4.40
2022-08-03T16:23:10.716Z,4.80
2022-08-03T16:33:17.372Z,4.80
2022-08-03T16:43:22.632Z,4.80
2022-08-03T16:53:33.678Z,4.90
2022-08-03T17:04:01.918Z,4.90
2022-08-03T17:14:09.753Z,5.20
2022-08-03T17:24:19.929Z,5.70
2022-08-03T17:34:26.648Z,5.40
2022-08-03T17:44:37.636Z,6.20
2022-08-03T17:55:56.496Z,6.60
2022-08-03T18:06:11.788Z,5.10
2022-08-03T18:16:15.628Z,5.80
2022-08-03T18:26:23.665Z,6.60
2022-08-03T18:36:47.290Z,6.50
2022-08-03T18:47:17.037Z,7.00
2022-08-03T18:57:30.205Z,7.40
2022-08-03T19:07:45.718Z,6.90
2022-08-03T19:18:08.813Z,7.50
2022-08-03T19:28:20.052Z,7.80
2022-08-03T19:38:33.440Z,7.90
2022-08-03T19:48:38.540Z,8.00
2022-08-03T19:58:45.576Z,7.10
2022-08-03T20:08:58.659Z,7.20
2022-08-03T20:19:02.129Z,7.10
2022-08-03T20:29:10.261Z,8.10
2022-08-03T20:39:14.357Z,8.60
2022-08-03T20:49:23.224Z,8.50
2022-08-03T20:59:35.053Z,8.10
2022-08-03T21:09:56.084Z,8.10
2022-08-03T21:20:09.214Z,8.80
2022-08-03T21:30:22.729Z,8.90
2022-08-03T21:40:42.263Z,9.10
2022-08-03T21:50:51.357Z,9.90
2022-08-03T22:00:56.123Z,9.90
2022-08-03T22:21:12.155Z,8.70
2022-08-03T22:31:57.208Z,8.40
2022-08-03T22:42:11.085Z,7.90
2022-08-03T22:52:17.855Z,8.30
2022-08-03T23:02:24.506Z,7.90
2022-08-03T23:12:31.278Z,7.20
2022-08-03T23:22:42.849Z,7.10
2022-08-03T23:32:53.901Z,7.60
2022-08-03T23:43:01.518Z,7.00
2022-08-03T23:53:07.681Z,7.50
